KLRJ/LRJ METAR and TAF weather

Enter ICAO airport designator
Station Type Date Time Source
KLRJ METAR 2019/10/20 18:55 UTC NOAA

KLRJ 201855Z AUTO 15017G22KT 10SM CLR 16/07 A2972 RMK AO2


Station Type Date Time Source
KLRJ Decoded METAR 2019/10/20 18:55 UTC NOAA

Le Mars, Le Mars Municipal Airport, IA, United States (KLRJ) 42-46-41N 096-11-37W
Oct 20, 2019 - 02:55 PM EDT / 2019.10.20 1855 UTC
Wind: from the SSE (150 degrees) at 20 MPH (17 KT) gusting to 25 MPH (22 KT):0
Visibility: 10 mile(s):0
Sky conditions: clear
Temperature: 60 F (16 C)
Dew Point: 44 F (7 C)
Relative Humidity: 55%
Pressure (altimeter): 29.72 in. Hg (1006 hPa)
ob: KLRJ 201855Z AUTO 15017G22KT 10SM CLR 16/07 A2972 RMK AO2
cycle: 19

Station Type Date Time Source
KLRJ TAF UTC NOAA

Error!

Example: see airport list